Time;durP1;ratioP1;P1;durP2;ratioP2;P2;SDS_P1;SDS_P2;PMS_P1;PMS_P2;Temp;Humidity;BMP_temperature;BMP_pressure;BME280_temperature;BME280_humidity;BME280_pressure;Samples;Min_cycle;Max_cycle;Signal;HPM_P1;HPM_P2
2021/07/18 00:00:26;;;;;;;;;;;19.10;67.50;;;;;;5074597;28;19912;-83
2021/07/18 00:02:51;;;;;;;;;;;19.00;67.50;;;;;;5089513;28;19915;-84
2021/07/18 00:05:17;;;;;;;;;;;19.00;67.70;;;;;;5091416;28;19917;-84
2021/07/18 00:07:42;;;;;;;;;;;19.00;68.00;;;;;;5082884;28;19908;-83
2021/07/18 00:10:08;;;;;;;;;;;18.90;68.00;;;;;;5065105;28;19977;-84
2021/07/18 00:12:33;;;;;;;;;;;18.90;68.00;;;;;;5099409;28;19916;-84
2021/07/18 00:14:59;;;;;;;;;;;18.90;68.20;;;;;;5095773;28;19942;-83
2021/07/18 00:17:24;;;;;;;;;;;18.80;68.40;;;;;;5100840;28;19916;-83
2021/07/18 00:19:50;;;;;;;;;;;18.80;68.50;;;;;;5102829;28;19912;-83
2021/07/18 00:22:15;;;;;;;;;;;18.80;68.70;;;;;;5089740;28;19913;-83
2021/07/18 00:24:41;;;;;;;;;;;18.70;68.80;;;;;;5089962;28;19975;-83
2021/07/18 00:27:06;;;;;;;;;;;18.70;69.00;;;;;;5077381;28;19917;-84
2021/07/18 00:29:32;;;;;;;;;;;18.60;69.10;;;;;;5085069;28;19921;-83
2021/07/18 00:31:57;;;;;;;;;;;18.60;69.20;;;;;;5065863;28;19943;-84
2021/07/18 00:34:23;;;;;;;;;;;18.60;69.40;;;;;;5084321;28;19916;-83
2021/07/18 00:36:48;;;;;;;;;;;18.50;69.50;;;;;;5066257;28;19912;-83
2021/07/18 00:39:15;;;;;;;;;;;18.50;69.80;;;;;;5085625;28;19968;-83
2021/07/18 00:41:41;;;;;;;;;;;18.40;69.80;;;;;;5097378;28;19912;-83
2021/07/18 00:44:07;;;;;;;;;;;18.40;70.00;;;;;;5082677;28;19912;-81
2021/07/18 00:46:33;;;;;;;;;;;18.30;70.20;;;;;;5093448;28;20305;-84
2021/07/18 00:48:58;;;;;;;;;;;18.30;70.40;;;;;;5085766;28;19916;-83
2021/07/18 00:51:24;;;;;;;;;;;18.30;70.60;;;;;;5088973;28;20369;-84
2021/07/18 00:53:50;;;;;;;;;;;18.20;70.80;;;;;;5074013;28;20409;-84
2021/07/18 00:56:15;;;;;;;;;;;18.20;70.90;;;;;;5084322;28;19912;-84
2021/07/18 00:58:44;;;;;;;;;;;18.20;71.10;;;;;;5083721;28;19935;-83
2021/07/18 01:01:10;;;;;;;;;;;18.10;71.40;;;;;;5063685;28;19913;-84
2021/07/18 01:03:36;;;;;;;;;;;18.10;71.60;;;;;;5082323;28;19912;-83
2021/07/18 01:06:01;;;;;;;;;;;18.10;71.70;;;;;;5098946;28;19916;-82
2021/07/18 01:08:27;;;;;;;;;;;18.10;72.00;;;;;;5095600;28;19956;-84
2021/07/18 01:10:52;;;;;;;;;;;18.10;72.20;;;;;;5063523;28;19935;-83
2021/07/18 01:13:18;;;;;;;;;;;18.10;72.40;;;;;;5084310;28;19951;-83
2021/07/18 01:15:43;;;;;;;;;;;18.10;72.60;;;;;;5082636;28;19913;-83
2021/07/18 01:18:12;;;;;;;;;;;18.00;72.70;;;;;;5066570;28;20010;-82
2021/07/18 01:20:39;;;;;;;;;;;18.00;72.90;;;;;;5083206;28;19912;-82
2021/07/18 01:23:04;;;;;;;;;;;18.00;73.20;;;;;;5085059;28;19912;-85
2021/07/18 01:25:32;;;;;;;;;;;17.90;73.30;;;;;;5064187;28;19951;-84
2021/07/18 01:28:00;;;;;;;;;;;17.90;73.50;;;;;;5082261;28;19951;-83
2021/07/18 01:30:26;;;;;;;;;;;17.90;73.80;;;;;;5073030;28;19912;-82
2021/07/18 01:32:51;;;;;;;;;;;17.90;74.00;;;;;;5102062;28;20019;-84
2021/07/18 01:35:17;;;;;;;;;;;17.90;74.30;;;;;;5083021;28;19919;-84
2021/07/18 01:37:43;;;;;;;;;;;17.90;74.50;;;;;;5083752;28;19995;-84
2021/07/18 01:40:10;;;;;;;;;;;17.80;74.60;;;;;;5082730;28;19913;-84
2021/07/18 01:42:37;;;;;;;;;;;17.80;74.80;;;;;;5083423;28;19910;-84
2021/07/18 01:45:02;;;;;;;;;;;17.80;75.10;;;;;;5083219;28;20377;-84
2021/07/18 01:47:28;;;;;;;;;;;17.80;75.40;;;;;;5085521;28;19916;-84
2021/07/18 01:49:54;;;;;;;;;;;17.80;75.70;;;;;;5081042;28;19917;-84
2021/07/18 01:52:19;;;;;;;;;;;17.80;75.90;;;;;;5080682;28;19909;-84
2021/07/18 01:54:45;;;;;;;;;;;17.80;76.20;;;;;;5065850;28;19919;-83
2021/07/18 01:57:17;;;;;;;;;;;17.70;76.30;;;;;;5091506;28;19965;-82
2021/07/18 01:59:43;;;;;;;;;;;17.70;76.60;;;;;;5082461;28;19912;-82
2021/07/18 02:02:09;;;;;;;;;;;17.70;76.90;;;;;;5083247;28;19913;-82
2021/07/18 02:04:34;;;;;;;;;;;17.70;77.10;;;;;;5083088;28;19982;-82
2021/07/18 02:07:01;;;;;;;;;;;17.70;77.50;;;;;;5071911;28;19920;-84
2021/07/18 02:09:27;;;;;;;;;;;17.60;77.70;;;;;;5088691;28;19916;-83
2021/07/18 02:11:52;;;;;;;;;;;17.60;78.00;;;;;;5088968;28;19935;-84
2021/07/18 02:14:18;;;;;;;;;;;17.60;78.30;;;;;;5087092;28;19916;-84
2021/07/18 02:16:43;;;;;;;;;;;17.60;78.60;;;;;;5086395;28;19926;-82
2021/07/18 02:19:09;;;;;;;;;;;17.50;78.80;;;;;;5084842;28;19913;-84
2021/07/18 02:21:41;;;;;;;;;;;17.50;79.20;;;;;;5083539;28;20003;-84
2021/07/18 02:24:07;;;;;;;;;;;17.50;79.40;;;;;;5081330;28;19969;-83
2021/07/18 02:26:33;;;;;;;;;;;17.50;79.70;;;;;;5084151;28;19917;-83
2021/07/18 02:28:59;;;;;;;;;;;17.40;80.00;;;;;;5064520;28;19917;-84
2021/07/18 02:31:25;;;;;;;;;;;17.40;80.40;;;;;;5080819;28;19917;-82
2021/07/18 02:33:50;;;;;;;;;;;17.40;80.70;;;;;;5082150;28;19913;-83
2021/07/18 02:36:16;;;;;;;;;;;17.40;81.10;;;;;;5081106;28;19912;-83
2021/07/18 02:38:41;;;;;;;;;;;17.30;81.30;;;;;;5065342;28;19986;-84
2021/07/18 02:41:07;;;;;;;;;;;17.30;81.60;;;;;;5082497;28;19931;-83
2021/07/18 02:43:33;;;;;;;;;;;17.30;81.90;;;;;;5064970;28;19915;-82
2021/07/18 02:45:58;;;;;;;;;;;17.30;82.20;;;;;;5083689;28;19936;-83
2021/07/18 02:48:24;;;;;;;;;;;17.20;82.50;;;;;;5083581;28;19921;-84
2021/07/18 02:50:50;;;;;;;;;;;17.20;82.90;;;;;;5084421;28;19909;-82
2021/07/18 02:53:15;;;;;;;;;;;17.20;83.20;;;;;;5092034;28;19912;-82
2021/07/18 02:55:41;;;;;;;;;;;17.10;83.40;;;;;;5081956;28;19975;-83
2021/07/18 02:58:06;;;;;;;;;;;17.10;83.90;;;;;;5082088;28;19935;-83
2021/07/18 03:00:32;;;;;;;;;;;17.10;84.40;;;;;;5082647;28;19909;-83
2021/07/18 03:02:57;;;;;;;;;;;17.00;84.70;;;;;;5083340;28;19912;-83
2021/07/18 03:05:22;;;;;;;;;;;17.00;85.10;;;;;;5083779;28;19978;-83
2021/07/18 03:07:48;;;;;;;;;;;17.00;85.60;;;;;;5081371;28;19920;-83
2021/07/18 03:10:15;;;;;;;;;;;17.00;86.10;;;;;;5083491;28;19963;-83
2021/07/18 03:12:41;;;;;;;;;;;17.00;86.40;;;;;;5089576;28;19934;-83
2021/07/18 03:15:09;;;;;;;;;;;16.90;86.80;;;;;;5090063;28;19913;-82
2021/07/18 03:17:35;;;;;;;;;;;16.90;87.20;;;;;;5085917;28;19916;-82
2021/07/18 03:20:02;;;;;;;;;;;16.90;87.70;;;;;;5087783;28;19912;-82
2021/07/18 03:22:28;;;;;;;;;;;16.90;88.10;;;;;;5068403;28;19970;-82
2021/07/18 03:24:53;;;;;;;;;;;16.80;88.50;;;;;;5087835;28;19913;-83
2021/07/18 03:27:19;;;;;;;;;;;16.80;89.00;;;;;;5083230;28;19920;-83
2021/07/18 03:29:44;;;;;;;;;;;16.80;89.40;;;;;;5068421;28;19936;-83
2021/07/18 03:32:10;;;;;;;;;;;16.80;89.90;;;;;;5085782;28;20000;-82
2021/07/18 03:34:35;;;;;;;;;;;16.80;90.10;;;;;;5070076;28;19919;-83
2021/07/18 03:37:01;;;;;;;;;;;16.80;90.40;;;;;;5088033;28;19962;-82
2021/07/18 03:39:26;;;;;;;;;;;16.70;90.50;;;;;;5106693;28;19915;-83
2021/07/18 03:41:52;;;;;;;;;;;16.70;90.70;;;;;;5072904;28;19912;-84
2021/07/18 03:44:17;;;;;;;;;;;16.70;91.00;;;;;;5092652;28;19920;-83
2021/07/18 03:46:42;;;;;;;;;;;16.70;91.20;;;;;;5073646;28;19908;-83
2021/07/18 03:49:08;;;;;;;;;;;16.70;91.40;;;;;;5111775;28;19912;-84
2021/07/18 03:51:33;;;;;;;;;;;16.70;91.60;;;;;;5109886;28;19966;-82
2021/07/18 03:53:59;;;;;;;;;;;16.70;91.80;;;;;;5087311;28;19966;-83
2021/07/18 03:56:24;;;;;;;;;;;16.70;92.00;;;;;;5087387;28;20329;-82
2021/07/18 03:58:52;;;;;;;;;;;16.70;92.20;;;;;;5091351;28;19912;-82
2021/07/18 04:01:19;;;;;;;;;;;16.70;92.40;;;;;;5074722;28;19974;-82
2021/07/18 04:03:47;;;;;;;;;;;16.70;92.60;;;;;;5085417;28;19927;-82
2021/07/18 04:06:15;;;;;;;;;;;16.70;92.70;;;;;;5068310;28;19924;-83
2021/07/18 04:08:41;;;;;;;;;;;16.70;93.00;;;;;;5071853;28;19937;-82
2021/07/18 04:11:07;;;;;;;;;;;16.70;93.20;;;;;;5065638;28;19940;-82
2021/07/18 04:13:32;;;;;;;;;;;16.80;93.40;;;;;;5085645;28;19979;-82
2021/07/18 04:15:58;;;;;;;;;;;16.80;93.60;;;;;;5067867;28;20356;-82
2021/07/18 04:18:23;;;;;;;;;;;16.90;93.80;;;;;;5086094;28;20111;-83
2021/07/18 04:20:49;;;;;;;;;;;16.90;93.90;;;;;;5085060;28;19919;-83
2021/07/18 04:23:16;;;;;;;;;;;16.90;94.10;;;;;;5084826;28;19969;-83
2021/07/18 04:25:42;;;;;;;;;;;17.00;94.30;;;;;;5067537;28;19948;-82
2021/07/18 04:28:08;;;;;;;;;;;17.00;94.50;;;;;;5083160;28;19913;-82
2021/07/18 04:30:33;;;;;;;;;;;17.10;94.70;;;;;;5084738;28;19914;-83
2021/07/18 04:32:59;;;;;;;;;;;17.10;94.80;;;;;;5086109;28;20325;-82
2021/07/18 04:35:24;;;;;;;;;;;17.20;95.00;;;;;;5086499;28;19961;-82
2021/07/18 04:37:49;;;;;;;;;;;17.20;95.10;;;;;;5083283;28;19987;-83
2021/07/18 04:40:15;;;;;;;;;;;17.30;95.30;;;;;;5066855;28;19912;-82
2021/07/18 04:42:41;;;;;;;;;;;17.40;95.40;;;;;;5083850;28;20289;-82
2021/07/18 04:45:07;;;;;;;;;;;17.40;95.50;;;;;;5085023;28;19908;-83
2021/07/18 04:47:32;;;;;;;;;;;17.50;95.60;;;;;;5083105;28;19951;-82
2021/07/18 04:49:58;;;;;;;;;;;17.60;95.70;;;;;;5084911;28;19924;-83
2021/07/18 04:52:24;;;;;;;;;;;17.70;95.90;;;;;;5085311;28;19917;-83
2021/07/18 04:54:49;;;;;;;;;;;17.80;95.90;;;;;;5084507;28;19909;-83
2021/07/18 04:57:15;;;;;;;;;;;18.00;96.00;;;;;;5084524;28;19909;-83
2021/07/18 04:59:40;;;;;;;;;;;18.10;96.10;;;;;;5084089;28;20428;-84
2021/07/18 05:02:06;;;;;;;;;;;18.30;96.30;;;;;;5065184;28;19912;-83
2021/07/18 05:04:31;;;;;;;;;;;18.50;96.40;;;;;;5102636;22;19922;-83
2021/07/18 05:06:56;;;;;;;;;;;18.70;96.80;;;;;;5057838;28;20298;-83
2021/07/18 05:09:22;;;;;;;;;;;18.80;96.50;;;;;;5079972;28;20015;-82
2021/07/18 05:11:47;;;;;;;;;;;18.90;96.50;;;;;;5061634;28;19916;-85
2021/07/18 05:14:13;;;;;;;;;;;19.00;96.60;;;;;;5041462;28;20003;-83
2021/07/18 05:16:38;;;;;;;;;;;19.00;96.70;;;;;;5040973;28;19912;-82
2021/07/18 05:19:04;;;;;;;;;;;19.10;97.00;;;;;;5041868;28;19977;-83
2021/07/18 05:21:30;;;;;;;;;;;19.10;97.10;;;;;;5055500;28;19912;-82
2021/07/18 05:23:55;;;;;;;;;;;19.10;97.40;;;;;;5041724;28;19917;-82
2021/07/18 05:26:21;;;;;;;;;;;19.10;97.60;;;;;;5058126;28;19912;-82
2021/07/18 05:28:46;;;;;;;;;;;19.30;98.00;;;;;;5042607;28;19928;-83
2021/07/18 05:31:12;;;;;;;;;;;19.50;98.00;;;;;;5042878;28;19970;-82
2021/07/18 05:33:37;;;;;;;;;;;19.50;98.00;;;;;;5060428;28;19963;-82
2021/07/18 05:36:03;;;;;;;;;;;19.60;98.10;;;;;;5040089;28;19943;-83
2021/07/18 05:38:28;;;;;;;;;;;19.80;98.40;;;;;;5058753;28;19995;-82
2021/07/18 05:40:54;;;;;;;;;;;19.90;98.30;;;;;;5042327;28;19913;-82
2021/07/18 05:43:19;;;;;;;;;;;20.10;98.50;;;;;;5061064;28;19917;-82
2021/07/18 05:45:45;;;;;;;;;;;20.40;98.40;;;;;;5044600;28;19955;-81
2021/07/18 05:48:10;;;;;;;;;;;20.60;98.30;;;;;;5044564;28;20143;-82
2021/07/18 05:50:36;;;;;;;;;;;20.70;98.30;;;;;;5043941;28;19913;-82
2021/07/18 05:53:02;;;;;;;;;;;20.80;98.50;;;;;;5044448;28;19917;-82
2021/07/18 05:55:27;;;;;;;;;;;20.80;98.60;;;;;;5042104;28;19966;-84
2021/07/18 05:57:53;;;;;;;;;;;20.90;98.80;;;;;;5042348;28;19940;-81
2021/07/18 06:00:19;;;;;;;;;;;21.20;98.80;;;;;;5044731;28;19913;-82
2021/07/18 06:02:44;;;;;;;;;;;21.50;98.60;;;;;;5044289;28;19993;-83
2021/07/18 06:05:10;;;;;;;;;;;21.60;98.50;;;;;;5061227;28;19917;-82
2021/07/18 06:07:39;;;;;;;;;;;21.60;98.60;;;;;;5060937;28;19944;-82
2021/07/18 06:10:05;;;;;;;;;;;21.80;98.80;;;;;;5064202;28;19982;-81
2021/07/18 06:12:31;;;;;;;;;;;22.40;98.40;;;;;;5064137;28;19915;-82
2021/07/18 06:14:59;;;;;;;;;;;24.10;98.10;;;;;;5062964;28;19913;-83
2021/07/18 06:17:25;;;;;;;;;;;28.40;92.40;;;;;;5062491;28;19921;-82
2021/07/18 06:19:50;;;;;;;;;;;30.30;84.60;;;;;;5063629;28;20309;-82
2021/07/18 06:22:19;;;;;;;;;;;33.30;78.10;;;;;;5061053;28;19909;-83
2021/07/18 06:24:45;;;;;;;;;;;35.90;70.30;;;;;;5046367;28;19939;-83
2021/07/18 06:27:13;;;;;;;;;;;38.30;63.90;;;;;;5045412;28;19995;-84
2021/07/18 06:29:39;;;;;;;;;;;40.20;59.40;;;;;;5045805;28;20058;-84
2021/07/18 06:32:05;;;;;;;;;;;39.40;58.20;;;;;;5045393;28;19913;-83
2021/07/18 06:34:30;;;;;;;;;;;37.60;59.60;;;;;;5044755;28;19916;-83
2021/07/18 06:36:56;;;;;;;;;;;36.40;61.60;;;;;;5063353;28;19996;-83
2021/07/18 06:39:24;;;;;;;;;;;36.00;64.00;;;;;;5046340;28;19917;-83
2021/07/18 06:41:49;;;;;;;;;;;38.80;61.10;;;;;;5045753;28;19919;-85
2021/07/18 06:44:15;;;;;;;;;;;41.40;57.80;;;;;;5045869;28;20290;-83
2021/07/18 06:46:45;;;;;;;;;;;43.40;55.20;;;;;;5046012;28;19995;-83
2021/07/18 06:49:11;;;;;;;;;;;45.40;52.90;;;;;;5044634;28;19916;-84
2021/07/18 06:51:36;;;;;;;;;;;46.40;50.50;;;;;;5045943;28;19967;-83
2021/07/18 06:54:02;;;;;;;;;;;46.30;48.80;;;;;;5047061;28;19913;-83
2021/07/18 06:56:30;;;;;;;;;;;44.60;50.90;;;;;;5064209;28;19912;-83
2021/07/18 06:58:56;;;;;;;;;;;43.10;51.60;;;;;;5046357;28;20004;-84
2021/07/18 07:01:21;;;;;;;;;;;41.00;52.80;;;;;;5064581;28;20378;-83
2021/07/18 07:03:47;;;;;;;;;;;40.50;54.10;;;;;;5044919;28;19958;-83
2021/07/18 07:06:15;;;;;;;;;;;43.80;51.50;;;;;;5062393;28;20421;-84
2021/07/18 07:08:40;;;;;;;;;;;47.00;48.40;;;;;;5044328;28;19976;-84
2021/07/18 07:11:06;;;;;;;;;;;49.70;46.10;;;;;;5045063;28;20366;-83
2021/07/18 07:13:34;;;;;;;;;;;51.70;43.80;;;;;;5043392;28;19912;-84
2021/07/18 07:16:00;;;;;;;;;;;53.20;42.10;;;;;;5060902;28;19941;-84
2021/07/18 07:18:32;;;;;;;;;;;54.50;40.90;;;;;;5060441;28;19917;-83
2021/07/18 07:20:58;;;;;;;;;;;55.50;39.50;;;;;;5059673;28;20329;-83
2021/07/18 07:23:23;;;;;;;;;;;56.20;39.20;;;;;;5041608;28;19999;-83
2021/07/18 07:25:49;;;;;;;;;;;56.70;37.90;;;;;;5042557;28;19912;-84
2021/07/18 07:28:16;;;;;;;;;;;56.90;36.80;;;;;;5058009;28;19923;-84
2021/07/18 07:30:42;;;;;;;;;;;57.10;36.70;;;;;;5039957;28;19927;-84
2021/07/18 07:33:08;;;;;;;;;;;57.60;36.40;;;;;;5030941;28;19912;-84
2021/07/18 07:35:33;;;;;;;;;;;58.20;36.00;;;;;;5037267;28;19912;-84
2021/07/18 07:37:59;;;;;;;;;;;58.50;35.60;;;;;;5054007;28;19920;-82
2021/07/18 07:40:24;;;;;;;;;;;58.90;35.20;;;;;;5035592;28;19913;-82
2021/07/18 07:42:50;;;;;;;;;;;59.00;34.50;;;;;;5036742;28;19948;-82
2021/07/18 07:45:15;;;;;;;;;;;58.60;33.50;;;;;;5036772;28;19913;-81
2021/07/18 07:47:41;;;;;;;;;;;58.40;33.60;;;;;;5055618;28;19951;-81
2021/07/18 07:50:08;;;;;;;;;;;58.80;33.70;;;;;;5054893;28;20302;-81
2021/07/18 07:52:33;;;;;;;;;;;59.00;33.90;;;;;;5036861;28;19916;-82
2021/07/18 07:54:59;;;;;;;;;;;59.10;32.90;;;;;;5053787;28;20003;-82
2021/07/18 07:57:25;;;;;;;;;;;59.20;32.90;;;;;;5049068;28;19905;-83
2021/07/18 07:59:50;;;;;;;;;;;59.40;32.50;;;;;;5068557;28;19909;-83
2021/07/18 08:02:16;;;;;;;;;;;58.30;32.90;;;;;;5037648;28;20382;-82
2021/07/18 08:04:41;;;;;;;;;;;57.50;33.20;;;;;;5037866;28;19917;-82
2021/07/18 08:07:07;;;;;;;;;;;57.00;34.00;;;;;;5054293;28;19913;-82
2021/07/18 08:09:32;;;;;;;;;;;56.80;33.90;;;;;;5036418;28;20007;-82
2021/07/18 08:12:00;;;;;;;;;;;56.70;33.90;;;;;;5054606;28;19928;-82
2021/07/18 08:14:25;;;;;;;;;;;56.40;33.60;;;;;;5037000;28;19917;-82
2021/07/18 08:16:51;;;;;;;;;;;54.80;34.20;;;;;;5054761;28;20181;-82
2021/07/18 08:19:16;;;;;;;;;;;54.50;35.20;;;;;;5055536;28;19912;-82
2021/07/18 08:21:42;;;;;;;;;;;54.70;34.40;;;;;;5036141;28;20290;-82
2021/07/18 08:24:08;;;;;;;;;;;54.90;34.30;;;;;;5055084;28;19967;-82
2021/07/18 08:26:33;;;;;;;;;;;55.10;34.10;;;;;;5035359;28;19920;-83
2021/07/18 08:28:59;;;;;;;;;;;55.50;33.90;;;;;;5037094;28;19912;-82
2021/07/18 08:31:25;;;;;;;;;;;55.40;33.50;;;;;;5036661;28;20305;-82
2021/07/18 08:33:52;;;;;;;;;;;55.40;33.50;;;;;;5054725;28;20275;-82
2021/07/18 08:36:18;;;;;;;;;;;55.50;33.40;;;;;;5039808;28;20004;-82
2021/07/18 08:38:44;;;;;;;;;;;55.40;33.10;;;;;;5042114;28;20402;-82
2021/07/18 08:41:09;;;;;;;;;;;55.30;32.60;;;;;;5055021;28;19919;-82
2021/07/18 08:43:35;;;;;;;;;;;55.10;32.30;;;;;;5037733;28;20317;-84
2021/07/18 08:46:08;;;;;;;;;;;54.90;32.00;;;;;;5036235;28;19916;-85
2021/07/18 08:48:36;;;;;;;;;;;54.30;32.10;;;;;;5035969;28;19931;-85
2021/07/18 08:51:09;;;;;;;;;;;54.20;32.20;;;;;;5055711;28;19912;-84
2021/07/18 08:53:35;;;;;;;;;;;54.40;32.10;;;;;;5036640;28;19912;-84
2021/07/18 08:56:00;;;;;;;;;;;54.60;32.20;;;;;;5039584;28;19932;-84
2021/07/18 08:58:26;;;;;;;;;;;54.80;31.70;;;;;;5060667;28;19913;-85
2021/07/18 09:00:52;;;;;;;;;;;52.20;32.20;;;;;;5060956;28;20405;-83
2021/07/18 09:03:17;;;;;;;;;;;49.80;34.70;;;;;;5060620;28;19916;-83
2021/07/18 09:05:43;;;;;;;;;;;50.20;33.90;;;;;;5041015;28;19967;-84
2021/07/18 09:08:16;;;;;;;;;;;50.90;32.90;;;;;;5040232;28;20003;-84
2021/07/18 09:10:46;;;;;;;;;;;51.70;32.40;;;;;;5058890;28;19917;-83
2021/07/18 09:13:12;;;;;;;;;;;52.20;32.00;;;;;;5040850;28;20383;-83
2021/07/18 09:15:40;;;;;;;;;;;52.60;31.70;;;;;;5042668;28;19913;-83
2021/07/18 09:18:12;;;;;;;;;;;53.00;31.50;;;;;;5060834;28;20390;-83
2021/07/18 09:20:39;;;;;;;;;;;52.80;30.50;;;;;;5041915;28;19956;-84
2021/07/18 09:23:15;;;;;;;;;;;52.60;30.80;;;;;;5059830;28;19909;-83
2021/07/18 09:25:41;;;;;;;;;;;52.70;31.10;;;;;;5042843;28;19919;-83
2021/07/18 09:28:32;;;;;;;;;;;53.00;30.90;;;;;;5062561;28;19909;-83
2021/07/18 09:31:00;;;;;;;;;;;53.20;31.00;;;;;;5034321;28;19924;-83
2021/07/18 09:33:27;;;;;;;;;;;53.40;30.90;;;;;;5042718;28;19919;-84
2021/07/18 09:36:08;;;;;;;;;;;53.20;30.70;;;;;;5039668;28;20380;-83
2021/07/18 09:38:33;;;;;;;;;;;53.10;31.00;;;;;;5060104;28;20267;-83
2021/07/18 09:40:59;;;;;;;;;;;53.30;31.30;;;;;;5043017;28;19919;-83
2021/07/18 09:43:27;;;;;;;;;;;53.30;30.90;;;;;;5043028;28;20050;-83
2021/07/18 09:46:00;;;;;;;;;;;52.90;30.70;;;;;;5061463;28;20373;-83
2021/07/18 09:48:39;;;;;;;;;;;52.40;31.00;;;;;;5043774;28;19932;-84
2021/07/18 09:51:12;;;;;;;;;;;52.30;31.10;;;;;;5043922;28;19909;-83
2021/07/18 09:53:38;;;;;;;;;;;52.10;31.10;;;;;;5061008;28;20449;-83
2021/07/18 09:56:04;;;;;;;;;;;52.00;31.20;;;;;;5060946;28;20333;-83
2021/07/18 09:58:30;;;;;;;;;;;52.00;31.10;;;;;;5042928;28;19963;-83
2021/07/18 10:00:57;;;;;;;;;;;51.70;31.10;;;;;;5043510;28;19909;-83
2021/07/18 10:03:23;;;;;;;;;;;51.50;31.00;;;;;;5062010;28;19948;-83
2021/07/18 10:06:04;;;;;;;;;;;51.30;30.90;;;;;;5060939;28;19924;-84
2021/07/18 10:08:30;;;;;;;;;;;51.30;31.30;;;;;;5061452;28;19923;-83
2021/07/18 10:10:56;;;;;;;;;;;51.30;31.20;;;;;;5061450;28;19909;-83
2021/07/18 10:13:22;;;;;;;;;;;51.30;31.00;;;;;;5042539;28;19913;-83
2021/07/18 10:15:47;;;;;;;;;;;51.30;30.80;;;;;;5042705;28;19931;-83
2021/07/18 10:18:13;;;;;;;;;;;51.10;30.80;;;;;;5042455;28;19909;-83
2021/07/18 10:20:38;;;;;;;;;;;51.00;30.80;;;;;;5057731;28;19909;-83
2021/07/18 10:23:06;;;;;;;;;;;51.00;30.90;;;;;;5049035;28;19916;-83
2021/07/18 10:25:32;;;;;;;;;;;50.90;30.60;;;;;;5060425;28;19955;-84
2021/07/18 10:27:58;;;;;;;;;;;50.90;30.40;;;;;;5038910;28;19913;-83
2021/07/18 10:30:23;;;;;;;;;;;50.80;30.40;;;;;;5039239;28;19984;-83
2021/07/18 10:32:51;;;;;;;;;;;50.90;30.30;;;;;;5038378;28;19970;-83
2021/07/18 10:35:18;;;;;;;;;;;51.00;30.20;;;;;;5057343;28;20341;-84
2021/07/18 10:37:44;;;;;;;;;;;51.00;30.00;;;;;;5056968;28;19909;-84
2021/07/18 10:40:14;;;;;;;;;;;51.20;30.00;;;;;;5039066;28;19916;-83
2021/07/18 10:42:39;;;;;;;;;;;51.70;30.00;;;;;;5038622;28;20440;-81
2021/07/18 10:45:14;;;;;;;;;;;52.20;30.30;;;;;;5056260;28;19909;-82
2021/07/18 10:47:54;;;;;;;;;;;52.00;29.90;;;;;;5056201;28;19995;-81
2021/07/18 10:50:40;;;;;;;;;;;51.50;29.40;;;;;;5055946;28;19917;-82
2021/07/18 10:53:38;;;;;;;;;;;51.00;29.20;;;;;;5037809;28;19909;-81
2021/07/18 10:56:05;;;;;;;;;;;50.90;29.40;;;;;;5005570;28;19909;-82
2021/07/18 10:58:37;;;;;;;;;;;51.30;29.50;;;;;;5038016;28;19920;-81
2021/07/18 11:01:03;;;;;;;;;;;51.30;29.20;;;;;;5056685;28;19909;-81
2021/07/18 11:03:39;;;;;;;;;;;50.90;29.30;;;;;;5037889;28;20281;-82
2021/07/18 11:06:20;;;;;;;;;;;50.80;29.40;;;;;;5039804;28;19916;-81
2021/07/18 11:09:04;;;;;;;;;;;50.70;29.60;;;;;;5042107;28;19913;-81
2021/07/18 11:11:49;;;;;;;;;;;50.60;29.70;;;;;;5041521;28;19912;-81
2021/07/18 11:14:24;;;;;;;;;;;50.50;29.90;;;;;;5058857;28;19909;-81
2021/07/18 11:16:50;;;;;;;;;;;50.50;30.00;;;;;;5041638;28;19908;-81
2021/07/18 11:19:34;;;;;;;;;;;50.50;30.00;;;;;;5059369;28;19984;-81
2021/07/18 11:22:00;;;;;;;;;;;50.40;30.00;;;;;;5059015;28;19908;-81
2021/07/18 11:24:44;;;;;;;;;;;50.30;30.00;;;;;;5040933;28;19915;-81
2021/07/18 11:27:22;;;;;;;;;;;50.10;30.00;;;;;;5059137;28;19909;-81
2021/07/18 11:29:48;;;;;;;;;;;50.00;29.90;;;;;;5041907;28;20011;-81
2021/07/18 11:32:19;;;;;;;;;;;49.60;29.50;;;;;;5062582;28;19944;-81
2021/07/18 11:34:45;;;;;;;;;;;49.20;29.60;;;;;;5063865;28;19909;-83
2021/07/18 11:37:12;;;;;;;;;;;49.00;29.50;;;;;;5045976;28;19909;-83
2021/07/18 11:39:42;;;;;;;;;;;48.70;29.50;;;;;;5046338;28;19916;-83
2021/07/18 11:42:09;;;;;;;;;;;48.40;29.50;;;;;;5045668;28;19909;-83
2021/07/18 11:44:35;;;;;;;;;;;48.30;29.60;;;;;;5063864;28;19909;-83
2021/07/18 11:47:01;;;;;;;;;;;48.20;29.60;;;;;;5064617;28;19931;-83
2021/07/18 11:49:30;;;;;;;;;;;48.20;29.70;;;;;;5047054;28;20459;-83
2021/07/18 11:51:56;;;;;;;;;;;48.10;29.30;;;;;;5064599;28;19908;-83
2021/07/18 11:54:21;;;;;;;;;;;47.80;29.20;;;;;;5046709;28;20007;-83
2021/07/18 11:56:48;;;;;;;;;;;47.60;29.40;;;;;;5064086;28;19909;-83
2021/07/18 11:59:14;;;;;;;;;;;47.50;29.30;;;;;;5040519;28;20621;-83
2021/07/18 12:01:40;;;;;;;;;;;47.40;29.40;;;;;;5027012;28;19952;-83
2021/07/18 12:04:07;;;;;;;;;;;47.00;29.10;;;;;;5044408;28;19909;-83
2021/07/18 12:06:33;;;;;;;;;;;46.90;29.00;;;;;;5026777;28;19917;-83
2021/07/18 12:08:59;;;;;;;;;;;46.70;29.20;;;;;;5044885;28;19992;-83
2021/07/18 12:11:25;;;;;;;;;;;46.70;29.30;;;;;;5045016;28;19967;-83
2021/07/18 12:13:53;;;;;;;;;;;46.70;29.30;;;;;;5043968;28;20325;-82
2021/07/18 12:16:22;;;;;;;;;;;46.70;29.20;;;;;;5028122;28;19909;-83
2021/07/18 12:18:48;;;;;;;;;;;46.70;29.20;;;;;;5045546;28;19909;-83
2021/07/18 12:21:14;;;;;;;;;;;46.70;29.30;;;;;;5045693;28;19909;-84
2021/07/18 12:23:42;;;;;;;;;;;46.70;29.20;;;;;;5044858;28;19924;-83
2021/07/18 12:26:08;;;;;;;;;;;46.70;29.20;;;;;;5028065;28;19916;-83
2021/07/18 12:28:33;;;;;;;;;;;46.70;29.20;;;;;;5047172;28;19920;-83
2021/07/18 12:31:06;;;;;;;;;;;46.50;29.20;;;;;;5065727;28;19909;-83
2021/07/18 12:33:32;;;;;;;;;;;46.30;29.20;;;;;;5064613;28;19913;-83
2021/07/18 12:36:02;;;;;;;;;;;46.10;29.20;;;;;;5047775;28;19916;-83
2021/07/18 12:38:28;;;;;;;;;;;46.00;29.40;;;;;;5065344;28;19909;-83
2021/07/18 12:41:00;;;;;;;;;;;45.80;29.40;;;;;;5066514;28;20008;-83
2021/07/18 12:43:25;;;;;;;;;;;45.70;29.60;;;;;;5066296;28;19909;-83
2021/07/18 12:45:53;;;;;;;;;;;45.30;29.50;;;;;;5066802;28;19920;-83
2021/07/18 12:48:23;;;;;;;;;;;44.90;29.60;;;;;;5065721;28;19916;-82
2021/07/18 12:50:48;;;;;;;;;;;44.40;29.50;;;;;;5046981;28;20381;-83
2021/07/18 12:53:17;;;;;;;;;;;43.80;29.60;;;;;;5046217;28;19909;-83
2021/07/18 12:55:58;;;;;;;;;;;43.40;29.90;;;;;;5064916;28;19920;-82
2021/07/18 12:58:23;;;;;;;;;;;43.20;30.00;;;;;;5046796;28;19909;-82
2021/07/18 13:00:58;;;;;;;;;;;43.00;30.00;;;;;;5045183;28;19909;-83
2021/07/18 13:03:24;;;;;;;;;;;42.90;30.30;;;;;;5043991;28;19909;-82
2021/07/18 13:05:49;;;;;;;;;;;42.40;30.60;;;;;;5025984;28;19928;-83
2021/07/18 13:08:41;;;;;;;;;;;42.40;31.00;;;;;;5043824;28;19909;-83
2021/07/18 13:11:26;;;;;;;;;;;42.00;31.00;;;;;;5022910;28;19964;-83
2021/07/18 13:13:52;;;;;;;;;;;41.60;31.30;;;;;;5043031;28;19936;-83
2021/07/18 13:16:29;;;;;;;;;;;40.70;31.80;;;;;;5041765;28;19909;-82
2021/07/18 13:19:05;;;;;;;;;;;40.40;32.30;;;;;;5043746;28;19913;-83
2021/07/18 13:21:30;;;;;;;;;;;40.50;32.30;;;;;;5026014;28;19959;-82
2021/07/18 13:23:56;;;;;;;;;;;40.60;32.10;;;;;;5042609;28;19944;-83
2021/07/18 13:26:31;;;;;;;;;;;40.70;32.10;;;;;;5046382;28;19917;-82
2021/07/18 13:29:12;;;;;;;;;;;40.80;32.00;;;;;;5045627;28;20378;-82
2021/07/18 13:31:38;;;;;;;;;;;40.30;32.10;;;;;;5045301;28;19909;-82
2021/07/18 13:34:04;;;;;;;;;;;39.60;32.70;;;;;;5063048;28;19956;-83
2021/07/18 13:36:29;;;;;;;;;;;39.50;32.90;;;;;;5045119;28;19909;-83
2021/07/18 13:39:05;;;;;;;;;;;39.50;32.90;;;;;;5044769;28;20338;-82
2021/07/18 13:41:30;;;;;;;;;;;39.50;32.90;;;;;;5044262;28;19998;-82
2021/07/18 13:43:56;;;;;;;;;;;39.50;32.90;;;;;;5063016;28;19908;-82
2021/07/18 13:46:21;;;;;;;;;;;39.40;33.10;;;;;;5044918;28;19932;-82
2021/07/18 13:48:47;;;;;;;;;;;39.30;33.10;;;;;;5044973;28;19913;-82
2021/07/18 13:51:13;;;;;;;;;;;39.10;33.30;;;;;;5044343;28;19909;-83
2021/07/18 13:53:39;;;;;;;;;;;39.00;33.50;;;;;;5043930;28;19909;-83
2021/07/18 13:56:05;;;;;;;;;;;38.90;33.60;;;;;;5044822;28;20328;-82
2021/07/18 13:58:30;;;;;;;;;;;38.80;33.30;;;;;;5044523;28;19931;-82
2021/07/18 14:00:56;;;;;;;;;;;38.50;33.50;;;;;;5043969;28;20294;-83
2021/07/18 14:03:22;;;;;;;;;;;38.40;33.70;;;;;;5043753;28;19919;-82
2021/07/18 14:05:47;;;;;;;;;;;38.00;33.80;;;;;;5044071;28;20275;-82
2021/07/18 14:08:13;;;;;;;;;;;37.50;34.20;;;;;;5043947;28;19916;-82
2021/07/18 14:10:39;;;;;;;;;;;37.30;34.50;;;;;;5043259;28;19912;-82
2021/07/18 14:13:05;;;;;;;;;;;37.10;34.80;;;;;;5061408;28;19944;-82
2021/07/18 14:15:30;;;;;;;;;;;37.00;34.90;;;;;;5042755;28;19913;-82